Date,TemperatureHighF,TemperatureAvgF,TemperatureLowF,DewpointHighF,DewpointAvgF,DewpointLowF,HumidityHigh,HumidityAvg,HumidityLow,PressureMaxIn,PressureMinIn,WindSpeedMaxMPH,WindSpeedAvgMPH,GustSpeedMaxMPH,PrecipitationSumIn
2013-1-1,39.9,32.2,28.9,27.0,25.0,23.0,87,75,60,30.45,30.35,11,5,18,0.00
2013-1-2,38.8,33.1,31.0,27.0,24.5,23.0,75,71,61,30.35,30.21,14,7,23,0.01
2013-1-3,37.1,33.8,30.0,32.0,24.9,23.0,86,70,59,30.27,30.15,14,4,21,0.00
2013-1-4,43.9,36.5,33.4,40.0,33.3,28.0,100,88,79,30.36,30.19,7,1,13,0.01
2013-1-5,36.6,34.6,33.5,33.0,30.4,28.0,92,84,78,30.23,30.17,9,2,12,0.02
2013-1-6,42.0,37.3,33.3,40.0,36.0,32.0,96,95,93,30.26,30.08,9,1,12,0.30
2013-1-7,48.8,45.6,42.0,48.0,44.3,41.0,96,95,94,30.22,29.99,13,5,26,0.30
2013-1-8,51.5,48.6,43.8,49.0,46.4,43.0,96,92,88,30.21,29.91,14,6,27,0.10
2013-1-9,48.8,41.2,34.4,46.0,39.1,33.0,100,92,84,29.99,29.70,15,4,23,0.32
2013-1-10,35.9,34.2,31.9,34.0,33.1,31.0,100,96,94,30.11,29.99,5,1,12,0.15
2013-1-11,37.2,31.1,28.9,34.0,29.6,27.0,96,94,83,30.32,30.11,3,0,7,0.01
2013-1-12,35.6,28.0,24.1,32.0,26.5,23.0,96,94,85,30.42,30.31,2,0,6,0.01
2013-1-13,34.1,27.4,25.3,30.0,25.6,24.0,95,93,82,30.51,30.42,3,0,10,0.00
2013-1-14,31.4,28.6,26.0,30.0,27.2,24.0,96,94,92,30.58,30.50,4,0,6,0.01
2013-1-15,34.7,32.9,31.1,34.0,31.8,30.0,97,96,95,30.68,30.59,3,0,7,0.01
2013-1-16,33.6,32.3,31.2,33.0,31.4,30.0,97,96,96,30.67,30.51,3,0,9,0.00
2013-1-17,41.9,32.8,28.5,35.0,29.7,28.0,96,88,69,30.50,30.33,5,1,11,0.01
2013-1-18,43.4,29.8,24.9,36.0,27.8,24.0,96,92,76,30.34,30.29,3,0,5,0.00
2013-1-19,40.1,28.7,24.7,36.0,27.3,23.0,96,94,85,30.36,30.29,3,0,4,0.00
2013-1-20,42.9,29.0,23.4,37.0,26.9,22.0,96,92,76,30.37,30.26,3,0,6,0.00
2013-1-21,37.9,27.5,21.7,33.0,25.5,20.0,95,92,79,30.30,30.18,5,0,7,0.01
2013-1-22,42.4,29.9,22.8,32.0,25.1,21.0,93,83,59,30.18,29.96,5,1,8,0.00
2013-1-23,34.8,32.5,30.9,32.0,28.7,25.0,95,86,69,30.22,29.91,7,1,11,0.27
2013-1-24,40.4,35.8,32.8,40.0,34.8,32.0,97,96,95,30.25,30.12,3,0,7,0.30
2013-1-25,48.5,44.6,40.2,48.0,43.8,39.0,97,97,96,30.15,29.96,6,1,10,0.19
2013-1-26,42.3,39.8,37.4,41.0,38.6,36.0,96,95,93,30.10,29.95,11,3,14,0.12
2013-1-27,39.9,38.2,36.7,39.0,37.2,36.0,96,96,94,30.16,30.05,11,3,15,0.24
2013-1-28,41.4,39.6,37.8,40.0,38.6,37.0,97,96,96,30.22,30.09,9,4,15,0.57
2013-1-29,44.0,42.5,41.0,43.0,41.6,40.0,100,96,95,30.48,30.22,9,3,15,0.40
2013-1-30,46.2,43.7,41.2,45.0,42.6,40.0,97,96,95,30.46,30.42,15,6,21,0.10
2013-1-31,49.8,45.9,42.9,47.0,44.4,42.0,97,94,89,30.46,30.34,7,1,10,0.01
2013-2-1,51.6,45.4,43.6,47.0,43.3,39.0,97,92,82,30.36,30.27,7,2,12,0.00
2013-2-2,51.9,44.0,39.1,45.0,39.5,37.0,94,84,75,30.30,30.26,7,1,13,0.00
2013-2-3,45.9,41.7,37.5,44.0,40.2,36.0,97,94,90,30.35,30.23,6,0,8,0.00
2013-2-4,52.0,44.1,40.1,45.0,41.2,39.0,96,90,72,30.24,29.95,3,0,7,0.00
2013-2-5,48.9,44.1,42.0,45.0,41.9,40.0,94,92,84,30.05,29.92,12,4,19,0.13
2013-2-6,48.5,44.0,40.5,43.0,40.9,38.0,94,88,75,30.10,29.86,9,3,21,0.13
2013-2-7,47.6,40.0,35.0,41.0,37.0,34.0,95,89,64,30.15,29.92,9,2,12,0.08
2013-2-8,39.8,35.5,32.4,37.0,34.1,31.0,96,94,89,30.29,30.15,4,0,8,0.01
2013-2-9,40.8,38.2,34.3,40.0,36.9,33.0,96,95,92,30.31,30.27,6,1,7,0.05
2013-2-10,43.1,40.4,38.8,40.0,38.4,37.0,97,92,86,30.36,30.31,3,0,6,0.00
2013-2-11,42.9,41.0,38.6,41.0,38.5,36.0,95,90,84,30.40,30.32,9,-19,12,0.00
2013-2-12,53.5,46.4,42.6,48.0,43.9,41.0,95,91,80,30.48,30.40,10,3,13,0.00
2013-2-13,51.4,46.2,42.4,47.0,43.6,40.0,94,90,82,30.51,30.42,9,2,16,0.00
2013-2-14,51.3,43.8,39.6,45.0,40.9,38.0,95,89,78,30.57,30.51,6,1,6,0.00
2013-2-15,60.1,46.7,39.9,47.0,42.2,39.0,97,86,60,30.50,30.20,9,2,13,0.00
2013-2-16,53.8,43.5,38.3,46.0,40.3,36.0,96,88,66,30.29,30.21,13,1,16,0.01
2013-2-17,45.7,39.9,35.0,38.0,35.3,31.0,93,84,60,30.30,30.10,4,0,8,0.00
2013-2-18,46.3,39.2,33.8,38.0,34.6,32.0,99,84,69,30.10,29.75,6,1,12,0.00
2013-2-19,53.3,41.2,35.5,41.0,35.0,-99.9,94,82,54,30.00,29.71,7,1,9,0.08
2013-2-20,45.4,39.8,35.8,40.0,37.1,34.0,94,90,77,30.10,30.00,7,2,13,0.04
2013-2-21,41.9,39.5,36.6,40.0,37.7,35.0,94,93,90,30.19,30.09,11,4,19,0.06
2013-2-22,43.2,40.8,35.2,42.0,39.1,34.0,95,93,89,30.18,29.88,18,6,30,0.90
2013-2-23,44.9,37.9,35.0,42.0,36.0,34.0,96,93,84,30.45,30.07,10,2,18,0.11
2013-2-24,49.9,41.5,34.3,39.0,35.5,33.0,94,80,54,30.44,30.06,12,3,19,0.02
2013-2-25,46.5,40.7,35.7,41.0,37.0,34.0,94,87,63,30.39,30.02,10,3,23,0.21
2013-2-26,48.4,40.5,34.5,38.0,35.9,33.0,94,84,63,30.40,30.25,8,1,12,0.00
2013-2-27,49.9,45.4,40.5,44.0,40.5,37.0,94,83,70,30.32,30.24,11,1,12,0.05
2013-2-28,53.2,49.9,44.2,51.0,48.2,43.0,96,94,92,30.44,30.19,15,5,20,0.13
2013-3-1,57.8,52.9,50.6,52.0,49.7,48.0,93,89,79,30.45,30.31,12,2,16,0.00
2013-3-2,52.6,48.5,39.2,48.0,45.5,37.0,94,89,82,30.31,30.16,6,1,11,0.00
2013-3-3,47.8,40.0,34.0,37.0,34.7,32.0,92,82,59,30.32,30.26,4,0,9,0.00
2013-3-4,56.3,42.2,31.7,34.0,31.0,28.0,100,68,38,30.26,29.92,9,1,12,0.00
2013-3-5,45.2,40.5,38.3,43.0,36.4,29.0,95,86,62,29.92,29.64,6,1,8,0.35
2013-3-6,42.2,40.0,38.3,41.0,38.5,37.0,96,94,90,29.97,29.55,14,3,17,0.41
2013-3-7,56.9,43.1,33.9,41.0,36.7,33.0,96,79,50,30.06,29.97,7,1,11,0.00
2013-3-8,58.5,43.4,35.1,40.0,35.6,33.0,95,77,42,30.22,30.03,8,2,12,0.00
2013-3-9,59.4,44.7,36.0,42.0,37.8,34.0,94,78,49,30.50,30.22,4,0,8,0.00
2013-3-10,48.2,42.8,37.7,43.0,38.5,34.0,93,85,73,30.50,30.42,5,0,6,0.01
2013-3-11,52.4,46.8,42.6,49.0,44.5,41.0,94,91,86,30.43,30.25,6,0,8,0.01
2013-3-12,58.4,51.2,47.5,51.0,47.5,45.0,98,88,72,30.23,30.16,8,2,13,0.00
2013-3-13,63.6,52.9,46.6,51.0,47.0,44.0,90,81,59,30.23,30.09,6,1,9,0.00
2013-3-14,56.8,52.0,48.1,48.0,46.3,43.0,93,81,62,30.20,30.04,9,2,15,0.00
2013-3-15,63.6,53.8,48.3,51.0,47.4,45.0,93,80,55,30.23,30.16,6,1,12,0.00
2013-3-16,48.8,44.4,36.4,46.0,42.3,35.0,94,92,89,30.17,30.00,7,2,20,0.26
2013-3-17,48.7,40.4,34.9,38.0,35.2,33.0,94,82,64,30.30,30.15,10,2,13,0.01
2013-3-18,52.2,42.0,34.6,39.0,35.6,32.0,92,79,54,30.29,30.16,7,1,12,0.00
2013-3-19,49.2,42.6,36.9,44.0,38.3,34.0,95,85,61,30.15,29.68,9,1,16,0.56
2013-3-20,50.9,46.5,37.6,49.0,42.7,34.0,96,87,73,30.16,29.53,12,3,23,0.34
2013-3-21,49.2,39.6,35.7,39.0,34.8,33.0,92,83,63,30.31,30.16,7,2,14,0.01
2013-3-22,46.7,37.0,31.8,38.0,33.5,30.0,94,87,62,30.40,30.30,6,1,13,0.07
2013-3-23,49.3,38.4,32.7,37.0,32.2,27.0,95,80,46,30.40,30.28,4,0,11,0.01
2013-3-24,53.2,43.4,35.3,35.0,33.2,31.0,90,69,47,30.28,30.09,9,2,13,0.00
2013-3-25,57.9,49.2,41.0,37.0,32.9,28.0,67,55,40,30.09,29.91,6,2,15,0.00
2013-3-26,50.4,45.7,41.4,46.0,42.5,38.0,92,88,76,30.03,29.96,4,0,7,0.01
2013-3-27,64.0,50.9,41.1,50.0,44.6,40.0,95,81,51,29.99,29.90,5,1,12,0.03
2013-3-28,64.5,53.3,45.0,50.0,46.4,44.0,95,79,50,30.13,30.00,7,0,10,0.00
2013-3-29,67.0,55.5,48.2,52.0,48.0,46.0,94,78,51,30.20,30.13,6,1,10,0.02
2013-3-30,75.7,59.7,45.5,52.0,47.4,43.0,91,67,40,30.18,29.97,9,3,15,0.00
2013-3-31,74.4,60.7,49.7,54.0,48.8,43.0,87,66,42,29.99,29.90,7,2,11,0.00
2013-4-1,65.8,55.6,49.3,53.0,49.4,47.0,91,80,61,30.16,30.00,9,2,14,0.00
2013-4-2,65.9,54.3,48.1,51.0,47.8,45.0,90,80,55,30.21,30.12,6,1,11,0.00
2013-4-3,63.0,54.1,45.4,52.0,47.9,44.0,95,80,61,30.17,29.91,4,0,7,0.00
2013-4-4,57.4,54.1,51.4,55.0,50.9,48.0,94,89,81,29.91,29.70,12,2,21,0.25
2013-4-5,56.0,51.7,49.0,51.0,48.7,47.0,94,89,80,29.95,29.81,16,5,20,0.35
2013-4-6,54.5,48.4,44.2,49.0,45.7,43.0,94,90,75,30.00,29.78,13,3,21,0.77
2013-4-7,51.4,45.8,40.8,47.0,42.6,38.0,95,88,78,29.97,29.56,15,3,28,0.19
2013-4-8,54.3,45.3,38.7,46.0,41.8,37.0,94,87,66,30.30,29.97,6,1,11,0.04
2013-4-9,55.1,48.2,40.4,46.0,43.1,39.0,95,83,65,30.37,30.25,3,0,6,0.00
2013-4-10,59.6,51.2,44.0,55.0,45.4,38.0,95,81,64,30.33,30.10,15,3,22,0.12
2013-4-11,54.4,47.1,38.8,43.0,40.1,36.0,93,77,63,30.35,30.19,4,0,10,0.00
2013-4-12,51.3,44.2,35.9,45.0,40.0,34.0,93,85,72,30.18,29.86,14,1,17,0.04
2013-4-13,51.0,43.6,36.3,42.0,37.4,34.0,94,79,62,30.09,29.92,9,2,20,0.09
2013-4-14,52.1,42.1,37.7,43.0,38.7,35.0,94,88,68,30.09,29.94,6,1,13,0.18
2013-4-15,54.8,44.2,36.4,42.0,37.4,33.0,95,79,46,30.18,29.95,11,0,14,0.16
2013-4-16,56.5,45.8,37.4,42.0,38.6,34.0,96,78,46,30.40,30.18,9,1,18,0.05
2013-4-17,58.4,46.5,36.0,44.0,39.4,34.0,93,77,49,30.50,30.40,5,0,10,0.00
2013-4-18,59.1,50.6,43.6,48.0,43.1,39.0,91,76,60,30.48,30.32,7,1,11,0.02
2013-4-19,54.8,50.1,47.3,52.0,47.8,45.0,95,91,84,30.32,30.15,10,3,20,0.44
2013-4-20,57.5,50.4,45.5,46.0,44.3,42.0,94,80,62,30.34,30.26,7,1,10,0.00
2013-4-21,51.3,47.9,44.3,48.0,44.1,41.0,91,86,78,30.32,30.25,5,1,11,0.00
2013-4-22,63.6,50.8,39.8,43.0,36.0,26.0,94,63,27,30.43,30.32,11,3,18,0.00
2013-4-23,66.4,53.1,40.2,39.0,33.4,27.0,76,51,23,30.39,30.15,9,2,17,0.00
2013-4-24,72.9,57.7,42.9,40.0,35.4,32.0,72,46,26,30.26,30.02,14,2,16,0.00
2013-4-25,73.4,59.5,46.9,48.0,42.1,36.0,75,55,32,30.14,30.02,5,0,9,0.00
2013-4-26,77.8,61.1,45.2,51.0,44.6,36.0,92,60,26,30.24,30.15,5,1,11,0.00
2013-4-27,74.0,59.1,49.4,48.0,41.8,35.0,85,55,32,30.25,30.18,9,1,15,0.00
2013-4-28,65.7,56.5,49.0,51.0,45.7,39.0,89,69,40,30.25,30.09,9,1,16,0.00
2013-4-29,59.9,50.7,40.1,48.0,40.0,31.0,92,69,40,30.23,30.05,10,2,17,0.06
2013-4-30,53.4,44.8,37.1,40.0,35.4,33.0,88,71,51,30.45,30.23,5,0,10,0.03
2013-5-1,67.9,51.7,36.1,41.0,36.7,33.0,89,61,34,30.52,30.45,11,2,14,0.00
2013-5-2,77.5,62.0,48.8,42.0,37.2,32.0,56,41,23,30.46,30.25,9,3,14,0.00
2013-5-3,77.5,62.3,48.4,48.0,40.2,35.0,64,46,29,30.28,30.13,9,2,16,0.00
2013-5-4,80.1,67.6,52.2,49.0,39.9,33.0,73,41,20,30.13,29.89,15,5,26,0.00
2013-5-5,82.4,70.8,58.1,43.0,39.5,35.0,51,34,21,29.89,29.69,17,-18,27,0.00
2013-5-6,79.8,65.9,53.7,57.0,50.0,42.0,73,58,38,29.86,29.74,8,1,13,0.00
2013-5-7,74.6,60.8,48.2,55.0,50.1,45.0,90,69,44,30.02,29.87,9,1,16,0.00
2013-5-8,65.0,55.4,47.2,54.0,49.6,45.0,92,81,64,30.15,30.02,4,0,9,0.00
2013-5-9,74.5,61.4,48.9,56.0,51.4,47.0,93,72,43,30.19,30.07,6,1,12,0.00
2013-5-10,83.9,67.9,53.2,59.0,54.6,50.0,89,65,38,30.19,30.09,5,0,7,0.00
2013-5-11,83.6,68.6,55.0,61.0,55.8,51.0,86,66,41,30.18,29.99,5,0,9,0.00
2013-5-12,68.4,62.1,56.1,61.0,56.8,54.0,93,83,71,30.11,30.05,5,1,9,0.10
2013-5-13,66.2,57.4,49.0,57.0,51.6,44.0,94,82,60,30.22,30.04,9,2,19,0.02
2013-5-14,65.9,54.8,44.2,47.0,42.2,34.0,92,66,32,30.23,30.11,6,0,9,0.00
2013-5-15,57.1,52.1,48.4,52.0,47.3,43.0,92,84,74,30.12,30.03,5,0,9,0.06
2013-5-16,63.5,55.0,50.1,56.0,51.6,47.0,93,88,72,30.03,29.94,6,0,11,0.06
2013-5-17,63.0,53.7,47.7,51.0,48.2,45.0,93,82,60,30.10,29.99,6,1,11,0.04
2013-5-18,56.3,51.4,47.7,52.0,49.0,46.0,94,91,77,30.28,30.11,6,0,9,0.26
2013-5-19,61.4,54.2,49.3,52.0,49.0,45.0,95,83,59,30.41,30.28,7,1,13,0.16
2013-5-20,70.3,55.9,44.6,52.0,46.3,42.0,93,73,40,30.35,29.90,4,0,9,0.01
2013-5-21,55.3,47.7,41.4,49.0,44.4,40.0,94,88,68,29.98,29.82,6,1,14,0.54
2013-5-22,46.1,42.9,40.2,45.0,41.5,39.0,95,94,93,29.99,29.94,10,3,18,0.65
2013-5-23,52.6,46.5,43.3,49.0,44.8,42.0,98,93,82,30.02,29.97,8,2,17,0.67
2013-5-24,56.3,49.5,46.0,51.0,47.1,45.0,95,91,76,30.09,29.98,11,2,18,0.16
2013-5-25,66.3,55.1,47.0,53.0,48.6,46.0,96,80,49,30.08,29.93,9,1,10,0.09
2013-5-26,63.5,55.7,51.6,54.0,50.9,48.0,95,84,67,30.03,29.95,13,1,15,0.74
2013-5-27,61.6,53.3,49.2,58.0,51.0,47.0,95,91,85,29.99,29.75,9,1,18,0.62
2013-5-28,63.2,54.6,49.7,53.0,49.2,47.0,95,83,62,29.94,29.77,7,1,15,0.10
2013-5-29,65.0,54.7,47.8,53.0,49.2,45.0,95,83,58,30.06,29.64,10,2,21,0.21
2013-5-30,61.8,53.5,46.9,51.0,47.9,45.0,94,82,63,30.26,30.06,8,1,12,0.09
2013-5-31,67.9,57.5,47.8,49.0,46.9,44.0,93,70,44,30.33,30.23,6,1,11,0.00
2013-6-1,75.1,60.8,49.0,56.0,50.9,46.0,90,72,48,30.24,30.02,5,0,8,0.00
2013-6-2,68.9,60.2,53.1,54.0,51.0,49.0,87,73,52,30.08,30.02,6,1,12,0.00
2013-6-3,71.5,58.7,46.8,54.0,50.0,45.0,93,75,48,30.12,30.03,8,1,12,0.00
2013-6-4,81.1,65.3,48.6,56.0,51.1,46.0,89,63,35,30.08,29.96,6,1,12,0.00
2013-6-5,82.7,69.7,56.0,60.0,54.8,50.0,82,61,38,30.07,29.96,7,1,11,0.00
2013-6-6,81.6,68.0,54.4,60.0,54.9,46.0,89,65,42,30.05,29.97,8,1,11,0.00
2013-6-7,79.9,64.6,52.8,57.0,49.1,43.0,83,60,32,30.14,30.04,9,1,13,0.00
2013-6-8,75.5,62.2,48.5,53.0,48.4,43.0,91,64,36,30.17,30.05,9,2,16,0.00
2013-6-9,71.3,59.5,49.1,52.0,48.3,45.0,89,68,46,30.10,29.98,8,1,13,0.00
2013-6-10,68.2,55.9,44.7,51.0,45.4,42.0,90,69,50,30.03,29.90,7,1,12,0.00
2013-6-11,66.2,56.5,50.0,50.0,46.0,42.0,82,69,52,30.14,29.99,9,0,12,0.00
2013-6-12,61.6,54.7,49.7,52.0,49.0,46.0,92,81,61,30.18,30.13,4,0,11,0.04
2013-6-13,59.9,53.0,48.5,56.0,50.5,47.0,95,91,82,30.30,30.17,5,1,11,0.34
2013-6-14,65.4,56.6,49.2,53.0,49.9,47.0,93,79,58,30.30,29.99,6,1,12,0.00
2013-6-15,79.1,63.9,49.4,59.0,53.7,47.0,93,71,41,29.99,29.90,8,1,8,0.00
2013-6-16,72.7,61.6,50.6,59.0,53.8,48.0,92,77,55,30.10,30.00,5,0,9,0.00
2013-6-17,77.0,63.4,50.9,56.0,52.0,48.0,91,69,43,30.10,29.93,6,1,12,0.00
2013-6-18,70.9,60.8,53.4,52.0,50.1,48.0,88,69,46,30.00,29.93,7,1,14,0.00
2013-6-19,64.9,56.6,50.3,55.0,49.8,47.0,88,78,61,30.09,29.95,5,1,11,0.03
2013-6-20,68.3,56.7,50.6,55.0,47.6,-99.9,91,76,59,30.14,30.05,7,-20,11,0.01
2013-6-21,68.0,59.8,52.8,53.0,50.2,48.0,87,72,52,30.17,30.12,4,0,9,0.00
2013-6-22,79.1,65.0,50.0,57.0,50.1,45.0,91,62,31,30.12,29.84,6,1,10,0.00
2013-6-23,67.5,62.2,57.0,62.0,57.7,52.0,93,85,65,29.84,29.64,3,0,6,0.19
2013-6-24,66.2,59.2,53.6,58.0,54.2,51.0,93,84,65,29.71,29.63,6,1,12,0.05
2013-6-25,66.4,59.6,55.2,61.0,56.0,53.0,94,88,73,29.87,29.68,7,1,11,0.15
2013-6-26,70.3,62.4,57.4,61.0,57.3,54.0,95,84,64,30.05,29.86,6,1,14,0.17
2013-6-27,80.1,68.4,59.9,64.0,60.7,57.0,90,77,57,30.15,30.01,5,-21,11,0.00
2013-6-28,89.6,73.8,60.7,69.0,63.5,59.0,95,73,43,30.14,30.00,5,0,10,0.00
2013-6-29,86.8,74.3,61.9,65.0,61.0,57.0,86,65,43,30.09,29.95,5,0,8,0.00
2013-6-30,94.3,77.8,63.1,69.0,62.9,-99.9,88,64,41,29.97,29.81,7,1,9,0.00
2013-7-1,89.8,77.3,65.2,70.0,65.4,62.0,88,68,51,29.98,29.88,6,0,10,0.00
2013-7-2,84.9,73.0,61.3,66.0,60.8,58.0,88,67,46,30.05,29.99,10,2,16,0.00
2013-7-3,83.9,70.0,57.0,57.0,52.5,47.0,86,57,33,30.12,30.01,7,1,13,0.00
2013-7-4,75.0,62.7,51.7,56.0,52.0,48.0,91,69,49,30.14,30.02,11,1,13,0.00
2013-7-5,72.2,61.5,53.0,55.0,52.3,49.0,87,73,54,30.06,29.94,7,1,11,0.00
2013-7-6,72.2,59.8,51.7,59.0,53.4,49.0,92,80,59,29.97,29.86,7,0,11,0.00
2013-7-7,75.0,63.4,53.7,61.0,56.1,51.0,92,78,59,29.96,29.87,8,1,10,0.00
2013-7-8,78.4,63.2,52.6,59.0,54.4,50.0,90,75,48,30.08,29.97,7,1,10,0.00
2013-7-9,86.7,72.5,58.2,63.0,59.5,56.0,92,66,42,30.07,29.96,10,1,14,0.00
2013-7-10,78.5,66.7,55.0,59.0,54.3,48.0,87,66,48,30.05,29.93,9,2,13,0.00
2013-7-11,73.9,60.9,49.3,52.0,48.7,46.0,87,66,45,30.08,29.96,7,1,13,0.00
2013-7-12,71.8,60.3,48.8,54.0,49.7,45.0,89,69,53,30.10,30.00,9,1,13,0.00
2013-7-13,77.5,63.7,48.7,52.0,47.9,43.0,87,60,33,30.15,30.03,7,1,16,0.00
2013-7-14,84.5,69.0,54.9,56.0,51.0,43.0,81,56,29,30.08,29.95,7,1,12,0.00
2013-7-15,82.7,67.6,53.9,56.0,50.1,43.0,81,56,37,30.00,29.80,7,2,14,0.00
2013-7-16,89.9,72.5,60.4,60.0,54.4,48.0,80,55,30,29.96,29.75,9,2,15,0.00
2013-7-17,75.7,64.6,57.9,58.0,55.6,54.0,87,74,51,30.16,29.96,6,1,12,0.00
2013-7-18,79.1,66.0,54.3,59.0,55.8,52.0,92,72,40,30.19,30.07,8,2,13,0.00
2013-7-19,78.4,65.0,54.7,62.0,57.4,52.0,91,78,55,30.13,30.00,9,1,12,0.00
2013-7-20,76.0,62.3,55.3,62.0,56.2,52.0,93,81,60,30.07,29.94,10,1,11,0.00
2013-7-21,77.8,63.6,53.6,62.0,56.4,51.0,91,79,57,29.99,29.89,7,1,10,0.00
2013-7-22,78.8,65.2,55.1,60.0,56.1,52.0,92,75,46,30.04,29.94,8,2,11,0.00
2013-7-23,85.5,69.0,56.9,64.0,59.3,55.0,94,74,45,30.03,29.93,7,1,11,0.00
2013-7-24,86.6,71.0,56.8,61.0,57.6,53.0,89,66,33,30.02,29.95,7,2,12,0.00
2013-7-25,87.1,70.9,56.1,60.0,55.3,49.0,84,61,29,30.07,29.99,7,1,13,0.00
2013-7-26,87.9,69.6,55.4,58.0,52.7,46.0,84,58,31,30.14,30.03,9,2,14,0.00
2013-7-27,79.6,64.5,52.2,55.0,51.4,47.0,88,65,37,30.17,29.99,5,1,10,0.00
2013-7-28,72.1,59.4,50.1,55.0,51.3,47.0,92,76,54,30.06,29.97,7,1,12,0.00
2013-7-29,74.9,63.0,52.8,59.0,53.8,49.0,88,73,51,30.02,29.93,5,0,10,0.00
2013-7-30,78.0,64.5,52.7,60.0,55.9,50.0,92,75,47,30.13,30.02,6,0,9,0.00
2013-7-31,73.8,64.6,57.1,62.0,57.9,55.0,92,79,62,30.10,30.00,8,1,10,0.00
2013-8-1,63.5,59.8,56.6,57.0,54.9,53.0,91,84,77,30.11,30.04,4,0,9,0.00
2013-8-2,69.3,62.3,55.1,57.0,54.7,52.0,91,77,60,30.14,30.09,4,0,8,0.00
2013-8-3,76.9,65.4,57.9,62.0,57.7,55.0,90,77,56,30.10,29.98,7,1,11,0.00
2013-8-4,86.9,71.5,58.0,65.0,60.6,55.0,92,71,45,30.01,29.88,6,1,10,0.00
2013-8-5,86.6,72.2,59.2,65.0,60.3,56.0,91,69,40,29.99,29.89,5,0,11,0.00
2013-8-6,89.1,72.0,56.2,61.0,55.6,51.0,85,60,28,29.98,29.88,6,0,10,0.00
2013-8-7,81.4,69.4,58.7,60.0,56.8,54.0,88,66,43,30.01,29.93,6,1,13,0.00
2013-8-8,78.2,66.3,56.9,63.0,57.8,53.0,88,75,57,30.03,29.89,8,1,11,0.00
2013-8-9,76.7,67.1,57.5,62.0,58.1,53.0,86,73,56,29.94,29.85,6,1,12,0.01
2013-8-10,80.7,67.9,58.9,66.0,60.9,56.0,92,79,53,30.02,29.89,3,0,10,0.01
2013-8-11,72.2,63.5,56.3,61.0,57.7,54.0,92,82,66,30.07,29.98,6,0,9,0.00
2013-8-12,76.9,64.3,55.9,61.0,57.1,54.0,93,78,55,30.06,30.00,6,0,8,0.00
2013-8-13,82.0,66.9,53.3,59.0,55.1,51.0,92,69,36,30.09,29.91,6,0,8,0.00
2013-8-14,83.0,69.4,58.6,60.0,55.7,49.0,85,64,32,29.95,29.91,4,0,9,0.00
2013-8-15,78.2,69.5,63.3,67.0,62.8,59.0,89,80,64,29.96,29.92,4,0,8,0.01
2013-8-16,81.0,69.5,62.8,68.0,63.3,61.0,94,82,58,30.03,29.95,4,0,10,0.00
2013-8-17,83.4,68.5,56.6,61.0,57.9,53.0,88,70,46,30.07,30.00,6,1,11,0.00
2013-8-18,81.3,68.0,58.5,61.0,58.1,56.0,91,73,46,30.12,30.03,7,1,11,0.00
2013-8-19,83.3,68.5,57.6,61.0,56.8,53.0,92,69,41,30.11,30.03,7,1,15,0.00
2013-8-20,79.1,64.6,51.7,58.0,53.0,49.0,91,69,41,30.12,29.99,10,2,14,0.00
2013-8-21,85.2,70.1,56.4,58.0,53.7,50.0,80,58,37,30.00,29.84,8,2,11,0.00
2013-8-22,81.7,69.9,59.4,63.0,57.1,52.0,90,65,45,29.88,29.82,5,1,11,0.09
2013-8-23,73.9,62.9,57.2,60.0,57.4,55.0,93,83,60,29.94,29.86,5,0,8,0.02
2013-8-24,75.7,64.3,58.7,60.0,56.5,52.0,92,77,49,29.91,29.84,5,0,8,0.01
2013-8-25,69.0,61.2,55.8,62.0,56.8,52.0,92,85,75,29.93,29.89,6,0,8,0.13
2013-8-26,78.9,64.5,57.4,62.0,56.7,51.0,94,78,39,29.96,29.89,8,1,17,0.05
2013-8-27,81.0,67.6,58.5,62.0,59.1,55.0,93,76,49,29.96,29.79,7,0,10,0.01
2013-8-28,80.7,69.2,59.7,64.0,61.1,57.0,95,76,55,29.90,29.83,6,0,8,0.04
2013-8-29,77.6,68.1,63.7,67.0,63.5,61.0,95,86,66,30.06,29.83,7,1,17,0.31
2013-8-30,81.3,68.9,61.8,63.0,60.3,58.0,94,76,47,30.14,30.03,4,0,12,0.00
2013-8-31,86.9,69.7,57.7,62.0,58.9,56.0,94,71,40,30.04,29.81,7,1,10,0.00
2013-9-1,83.4,68.6,57.3,60.0,56.6,53.0,88,67,37,29.89,29.79,4,0,11,0.00
2013-9-2,80.5,69.6,61.4,63.0,57.3,54.0,84,66,47,29.91,29.86,6,0,13,0.00
2013-9-3,78.4,66.2,58.3,61.0,58.0,55.0,94,76,49,29.99,29.91,4,0,7,0.06
2013-9-4,71.1,65.2,59.3,61.0,58.8,56.0,89,80,69,30.05,29.97,3,0,7,0.00
2013-9-5,65.0,61.1,56.3,60.0,58.3,55.0,95,90,84,30.03,29.96,10,1,16,0.61
2013-9-6,67.3,60.8,56.4,62.0,58.1,55.0,96,91,78,30.13,30.02,10,2,21,1.16
2013-9-7,77.3,64.5,55.6,62.0,58.4,54.0,95,82,57,30.11,29.96,7,1,10,0.00
2013-9-8,83.1,68.4,58.1,63.0,60.0,56.0,93,76,47,30.06,29.98,8,1,12,0.00
2013-9-9,79.9,67.0,59.5,65.0,61.1,58.0,94,82,58,30.02,29.91,9,1,12,0.00
2013-9-10,87.3,71.3,59.9,67.0,62.6,58.0,94,76,51,29.92,29.77,9,2,12,0.00
2013-9-11,96.0,77.5,66.2,67.0,62.7,59.0,79,62,36,29.91,29.80,6,1,9,0.00
2013-9-12,82.3,67.1,56.3,65.0,60.3,54.0,93,80,55,29.99,29.89,4,0,7,0.00
2013-9-13,73.1,63.5,58.4,64.0,59.4,56.0,93,87,72,29.96,29.83,6,1,11,0.00
2013-9-14,77.7,65.7,59.6,66.0,61.1,58.0,94,86,63,29.85,29.70,6,0,8,0.00
2013-9-15,64.9,61.4,58.2,61.0,58.6,56.0,94,90,85,29.88,29.70,6,1,9,0.02
2013-9-16,71.0,60.9,56.9,60.0,56.8,54.0,92,86,65,29.98,29.89,7,1,11,0.02
2013-9-17,65.6,58.1,53.0,58.0,52.9,50.0,93,83,59,30.01,29.86,5,-10,8,0.00
2013-9-18,69.5,58.8,52.3,56.0,51.7,49.0,93,79,51,30.09,30.01,4,0,7,0.00
2013-9-19,79.2,61.1,48.6,55.0,50.1,46.0,93,70,38,30.01,29.77,5,0,8,0.00
2013-9-20,73.9,60.0,51.2,59.0,53.1,48.0,91,79,56,29.77,29.65,7,0,13,0.00
2013-9-21,65.7,59.2,55.2,58.0,55.0,53.0,94,86,69,29.77,29.68,6,0,10,0.02
2013-9-22,61.2,55.3,53.3,56.0,52.8,51.0,95,91,73,29.86,29.67,13,3,21,0.75
2013-9-23,58.6,55.1,52.7,56.0,53.3,51.0,95,93,89,30.00,29.86,9,2,15,0.16
2013-9-24,57.8,52.3,49.2,54.0,50.6,48.0,96,94,86,29.99,29.86,5,0,12,0.87
2013-9-25,59.1,50.4,47.0,52.0,48.2,46.0,96,92,75,30.04,29.86,5,0,9,0.29
2013-9-26,62.3,51.7,46.6,55.0,48.5,45.0,96,89,71,30.17,30.04,4,0,7,0.00
2013-9-27,53.9,51.0,47.2,52.0,48.9,46.0,95,93,88,30.17,29.92,13,3,19,0.30
2013-9-28,60.7,55.4,50.6,58.0,53.8,49.0,95,94,89,29.91,29.55,17,6,29,1.24
2013-9-29,54.9,52.0,49.7,54.0,50.5,48.0,95,94,92,29.68,29.36,13,4,28,1.51
2013-9-30,54.8,50.5,48.2,53.0,48.9,46.0,95,94,91,30.01,29.61,12,3,19,0.58
2013-10-1,56.0,49.0,44.6,53.0,47.4,43.0,96,94,84,30.20,29.98,7,1,11,0.36
2013-10-2,50.7,46.4,42.7,48.0,44.7,41.0,96,94,90,30.19,30.09,5,0,9,0.24
2013-10-3,55.2,46.7,43.3,51.0,45.0,42.0,96,94,82,30.43,30.20,3,0,6,0.01
2013-10-4,64.9,50.1,41.6,53.0,46.6,41.0,97,88,62,30.45,30.34,6,1,10,0.01
2013-10-5,69.4,54.6,46.0,52.0,47.2,43.0,90,77,51,30.34,30.14,8,1,10,0.00
2013-10-6,73.2,56.3,46.3,53.0,47.8,44.0,92,75,45,30.14,29.96,5,0,13,0.00
2013-10-7,60.3,53.1,49.8,53.0,49.1,46.0,95,86,67,30.14,29.98,10,1,11,0.13
2013-10-8,54.1,48.7,42.7,51.0,46.5,41.0,95,92,87,30.15,29.99,7,1,12,0.15
2013-10-9,56.9,46.4,41.0,47.0,43.3,40.0,100,89,68,30.11,29.98,7,1,10,0.00
2013-10-10,59.4,50.7,44.6,50.0,47.1,43.0,94,87,69,30.09,29.96,5,0,10,0.01
2013-10-11,57.4,50.2,46.5,49.0,46.2,43.0,94,86,64,30.15,30.09,3,0,6,0.00
2013-10-12,54.9,48.5,44.5,49.0,45.5,43.0,94,89,78,30.18,30.07,3,0,6,0.01
2013-10-13,59.2,48.4,43.6,49.0,44.7,42.0,96,87,66,30.32,30.17,6,1,10,0.00
2013-10-14,63.0,50.4,42.5,50.0,45.1,41.0,95,83,60,30.36,30.29,7,1,11,0.00
2013-10-15,67.3,53.2,43.9,45.0,41.8,39.0,90,68,38,30.34,30.13,9,2,17,0.00
2013-10-16,64.7,51.4,44.5,49.0,45.6,42.0,93,81,53,30.16,30.11,6,0,9,0.00
2013-10-17,61.3,51.2,44.0,50.0,46.7,43.0,95,85,65,30.23,30.15,8,2,12,0.00
2013-10-18,68.7,55.5,46.9,49.0,45.0,42.0,88,70,47,30.17,30.08,9,2,17,0.00
2013-10-19,67.7,52.5,44.5,51.0,46.6,43.0,94,81,52,30.14,30.10,5,0,8,0.00
2013-10-20,64.0,49.9,44.5,53.0,46.7,43.0,96,89,66,30.15,30.06,5,1,8,0.00
2013-10-21,69.3,54.4,44.4,54.0,47.8,43.0,96,80,55,30.09,29.99,6,2,10,0.00
2013-10-22,74.0,59.2,48.9,56.0,49.4,45.0,87,71,47,30.04,29.95,8,2,13,0.00
2013-10-23,72.1,57.0,47.5,55.0,50.3,45.0,93,79,52,30.00,29.93,4,0,8,0.00
2013-10-24,68.1,53.8,47.0,56.0,49.9,45.0,96,87,61,30.10,29.98,2,0,7,0.00
2013-10-25,52.6,49.9,48.1,50.0,48.0,46.0,96,93,88,30.27,30.10,5,1,8,0.01
2013-10-26,53.2,49.0,45.4,49.0,47.0,44.0,96,92,85,30.29,30.17,4,0,7,0.01
2013-10-27,53.7,48.1,45.6,50.0,45.4,44.0,96,90,80,30.19,29.84,8,2,16,0.13
2013-10-28,57.4,47.9,41.4,44.0,36.7,30.0,92,68,38,29.93,29.82,13,2,19,0.00
2013-10-29,58.8,44.2,36.7,37.0,34.7,32.0,91,71,42,30.06,29.93,7,0,9,0.00
2013-10-30,56.7,45.0,35.6,45.0,39.0,33.0,93,80,56,30.20,30.06,4,0,6,0.00
2013-10-31,55.2,51.5,48.3,51.0,47.6,43.0,93,86,80,30.28,30.16,9,1,12,0.02
2013-11-1,59.6,51.7,47.5,51.0,48.6,46.0,95,89,71,30.29,29.91,4,0,10,0.16
2013-11-2,53.8,48.6,42.4,50.0,45.1,40.0,95,88,68,30.06,29.72,11,2,25,0.72
2013-11-3,49.3,43.8,39.9,44.0,41.0,38.0,94,90,80,30.16,30.05,7,2,12,0.04
2013-11-4,46.6,44.7,42.9,45.0,43.2,41.0,95,94,92,30.18,30.12,7,1,10,0.38
2013-11-5,51.2,49.1,46.2,50.0,47.9,45.0,96,95,95,30.25,30.09,9,2,13,0.33
2013-11-6,52.1,49.4,47.0,51.0,48.4,46.0,96,96,95,30.30,30.09,4,0,5,0.46
2013-11-7,53.7,49.2,45.7,53.0,47.6,44.0,97,94,89,30.12,29.88,12,4,21,0.43
2013-11-8,49.4,46.0,42.8,47.0,44.5,41.0,95,94,90,30.20,30.13,6,1,10,0.05
2013-11-9,48.7,44.8,41.2,46.0,43.1,40.0,96,93,88,30.13,30.04,6,0,8,0.00
2013-11-10,55.3,48.4,44.2,50.0,45.0,42.0,93,88,79,30.09,30.05,9,2,13,0.00
2013-11-11,59.4,50.4,44.3,46.0,42.6,41.0,91,75,60,30.15,30.01,9,2,21,0.00
2013-11-12,54.4,50.2,46.1,53.0,48.7,43.0,96,94,83,30.42,30.08,5,0,8,0.32
2013-11-13,51.5,47.9,42.2,50.0,46.8,41.0,96,96,94,30.48,30.30,4,0,6,0.00
2013-11-14,47.8,45.3,42.3,47.0,44.1,41.0,96,95,93,30.30,30.11,5,0,8,0.06
2013-11-15,45.3,42.9,40.2,44.0,41.5,39.0,96,95,92,30.11,29.54,15,3,25,0.15
2013-11-16,46.0,44.0,41.5,44.0,42.0,40.0,96,92,88,29.86,29.54,17,2,19,0.06
2013-11-17,52.4,47.6,43.6,47.0,44.0,41.0,93,87,81,29.99,29.86,14,5,21,0.02
2013-11-18,52.4,49.4,48.4,48.0,45.6,43.0,94,87,79,29.98,29.71,15,-27,22,0.59
2013-11-19,50.6,45.4,33.8,49.0,43.5,31.0,96,93,83,30.03,29.70,16,2,23,0.56
2013-11-20,44.3,35.2,31.0,36.0,30.5,26.0,94,83,56,30.41,30.03,9,2,16,0.00
2013-11-21,44.7,34.8,28.6,27.0,19.8,12.0,89,59,28,30.58,30.42,9,3,20,0.00
2013-11-22,45.2,38.1,31.7,20.0,17.2,13.0,60,43,35,30.57,30.41,19,6,25,0.00
2013-11-23,47.8,41.0,37.0,21.0,19.8,17.0,49,43,34,30.41,30.17,17,6,22,0.00
2013-11-24,52.0,39.5,33.4,32.0,24.6,19.0,74,56,39,30.28,30.16,4,0,15,0.00
2013-11-25,52.7,38.4,31.8,33.0,28.7,26.0,80,69,42,30.35,30.29,5,0,8,0.00
2013-11-26,49.8,40.0,32.9,38.0,31.4,28.0,89,72,55,30.29,30.07,4,0,8,0.00
2013-11-27,52.4,43.0,38.5,33.0,30.1,28.0,68,61,46,30.07,29.96,10,2,14,0.00
2013-11-28,52.5,42.5,36.8,35.0,31.9,30.0,84,67,49,30.21,30.02,10,1,12,0.00
2013-11-29,43.1,38.2,33.1,38.0,34.8,31.0,92,87,81,30.38,30.21,1,0,6,0.01
2013-11-30,47.3,43.8,40.1,45.0,40.8,38.0,92,89,81,30.40,30.21,8,1,11,0.03
2013-12-1,52.9,50.6,47.2,52.0,49.0,45.0,95,94,90,30.21,29.91,20,-4,25,1.19
2013-12-2,49.4,40.7,33.6,48.0,38.2,32.0,95,91,75,30.05,29.91,7,0,13,0.06
2013-12-3,40.5,33.8,28.1,35.0,24.4,-99.9,95,75,50,30.29,30.05,12,-19,20,0.01
2013-12-4,36.3,27.9,24.0,22.0,17.0,-99.9,90,67,45,30.35,30.29,8,1,15,0.00
2013-12-5,31.5,25.4,20.7,17.0,15.2,13.0,78,65,51,30.31,30.17,6,1,11,0.00
2013-12-6,28.2,24.7,22.5,18.0,14.0,10.0,79,64,54,30.17,29.97,16,-5,23,0.00
2013-12-7,26.8,20.9,15.5,10.0,6.9,5.0,69,56,43,30.44,30.11,17,3,20,0.00
2013-12-8,27.9,18.6,11.9,12.0,10.0,7.0,85,70,49,30.61,30.44,3,0,5,0.00
2013-12-9,26.7,21.8,15.4,20.0,16.0,12.0,86,78,73,30.63,30.55,7,0,10,0.00
2013-12-10,33.2,28.4,25.6,27.0,23.9,20.0,93,83,75,30.57,30.41,2,0,5,0.00
2013-12-11,38.1,29.5,25.0,34.0,27.2,23.0,100,91,80,30.41,30.22,2,0,7,0.00
2013-12-12,39.4,32.1,26.1,38.0,30.2,24.0,95,93,86,30.23,30.14,6,1,14,0.07
2013-12-13,45.2,42.3,39.3,44.0,41.1,38.0,96,95,95,30.44,30.23,5,1,11,0.02
2013-12-14,40.4,37.9,35.6,39.0,36.9,35.0,96,96,95,30.48,30.38,5,0,8,0.01
2013-12-15,44.1,39.6,36.5,43.0,38.6,36.0,97,96,94,30.49,30.43,2,0,7,0.00
2013-12-16,40.8,39.6,38.3,40.0,38.8,37.0,97,96,96,30.48,30.26,4,1,10,0.01
2013-12-17,38.4,36.0,35.0,38.0,35.4,34.0,97,97,96,30.26,30.19,3,0,6,0.00
2013-12-18,39.6,36.1,31.6,39.0,35.4,31.0,97,97,96,30.20,30.06,3,0,11,0.03
2013-12-19,34.6,32.2,30.4,33.0,31.1,29.0,97,95,93,30.33,30.13,4,0,9,0.01
2013-12-20,44.0,35.7,30.6,43.0,34.6,29.0,100,95,93,30.25,29.89,14,4,29,0.09
2013-12-21,48.5,45.2,43.8,47.0,44.0,43.0,97,95,91,30.23,29.94,8,1,12,0.09
2013-12-22,49.4,46.2,43.8,48.0,45.1,43.0,96,95,94,30.36,30.23,9,2,16,0.04
2013-12-23,48.7,44.7,38.1,48.0,43.7,37.0,100,96,94,30.54,30.30,11,2,19,0.14
2013-12-24,39.7,36.4,32.6,39.0,35.6,31.0,97,97,95,30.61,30.50,5,1,9,0.00
2013-12-25,37.8,34.5,32.2,37.0,33.7,32.0,100,97,95,30.50,30.40,5,0,12,0.00
2013-12-26,35.7,33.1,31.4,35.0,32.4,30.0,97,97,96,30.41,30.25,1,0,4,0.01
2013-12-27,35.1,32.7,29.7,34.0,32.0,29.0,97,97,96,30.41,30.22,4,0,5,0.01
2013-12-28,41.5,37.9,33.8,41.0,36.7,33.0,97,95,89,30.52,30.42,4,0,8,0.00
2013-12-29,38.6,36.0,34.7,37.0,34.9,34.0,96,95,92,30.46,30.30,3,0,7,0.00
2013-12-30,38.4,36.5,35.3,38.0,35.7,34.0,97,96,96,30.31,30.20,4,0,7,0.02
2013-12-31,44.8,40.4,36.3,43.0,39.3,36.0,97,96,92,30.35,30.25,4,0,6,0.06
2014-1-1,43.5,40.4,36.6,42.0,39.4,36.0,100,96,92,30.37,30.26,6,1,9,0.00
2014-1-2,43.7,38.5,35.3,42.0,37.4,34.0,97,96,92,30.27,30.04,7,1,13,0.13